createdAt,value
2023-11-06T05:03:06.224Z,12.81
2023-11-06T05:06:09.726Z,12.81
2023-11-06T05:09:12.214Z,12.29
2023-11-06T05:12:14.686Z,12.21
2023-11-06T05:15:16.959Z,12.32
2023-11-06T05:18:19.906Z,12.32
2023-11-06T05:21:28.756Z,12.33
2023-11-06T05:24:31.275Z,12.25
2023-11-06T05:27:33.452Z,12.43
2023-11-06T05:30:35.875Z,12.44
2023-11-06T05:33:38.393Z,12.48
2023-11-06T05:36:42.622Z,12.56
2023-11-06T05:39:46.798Z,12.57
2023-11-06T05:42:51.159Z,12.76
2023-11-06T05:45:54.449Z,12.76
2023-11-06T05:48:57.298Z,12.65
2023-11-06T05:51:59.447Z,12.55
2023-11-06T05:55:01.863Z,12.40
2023-11-06T05:58:05.642Z,12.30
2023-11-06T06:01:10.143Z,12.17
2023-11-06T06:04:14.426Z,12.05
2023-11-06T06:07:17.031Z,12.13
2023-11-06T06:10:19.655Z,12.10
2023-11-06T06:13:23.697Z,12.11
2023-11-06T06:16:26.245Z,11.97
2023-11-06T06:19:28.436Z,12.13
2023-11-06T06:22:32.085Z,12.29
2023-11-06T06:25:34.309Z,12.39
2023-11-06T06:28:37.727Z,12.54
2023-11-06T06:31:39.864Z,12.56
2023-11-06T06:34:43.174Z,12.63
2023-11-06T06:37:45.568Z,12.67
2023-11-06T06:40:52.292Z,12.69
2023-11-06T06:43:55.222Z,12.73
2023-11-06T06:46:59.739Z,12.74
2023-11-06T06:50:02.615Z,12.89
2023-11-06T06:53:09.410Z,12.94
2023-11-06T06:56:11.974Z,13.04
2023-11-06T06:59:14.877Z,13.10
2023-11-06T07:02:17.303Z,13.28
2023-11-06T07:05:20.897Z,13.67
2023-11-06T07:08:25.526Z,13.43
2023-11-06T07:11:28.554Z,13.34
2023-11-06T07:14:33.089Z,13.44
2023-11-06T07:17:35.904Z,13.44
2023-11-06T07:20:38.248Z,13.41
2023-11-06T07:23:43.214Z,13.30
2023-11-06T07:26:45.432Z,13.34
2023-11-06T07:29:48.773Z,13.49
2023-11-06T07:32:51.216Z,13.47
2023-11-06T07:35:54.094Z,13.51
2023-11-06T07:38:56.485Z,13.53
2023-11-06T07:41:58.901Z,13.50
2023-11-06T07:45:01.394Z,13.58
2023-11-06T07:48:06.944Z,13.67
2023-11-06T07:51:09.279Z,13.72
2023-11-06T07:54:12.850Z,13.74
2023-11-06T07:57:15.419Z,13.67
2023-11-06T08:00:18.284Z,13.62
2023-11-06T08:03:20.765Z,13.65
2023-11-06T08:06:23.226Z,13.73
2023-11-06T08:09:25.843Z,13.69
2023-11-06T08:12:28.314Z,13.75
2023-11-06T08:15:32.007Z,13.79
2023-11-06T08:18:35.435Z,13.79
2023-11-06T08:21:38.520Z,13.90
2023-11-06T08:24:42.312Z,13.94
2023-11-06T08:27:48.159Z,14.04
2023-11-06T08:30:51.845Z,14.03
2023-11-06T08:33:54.429Z,14.17
2023-11-06T08:36:57.052Z,14.27
2023-11-06T08:39:59.981Z,14.26
2023-11-06T08:43:02.224Z,14.29
2023-11-06T08:46:06.020Z,14.36
2023-11-06T08:49:10.049Z,14.45
2023-11-06T08:52:12.838Z,14.51
2023-11-06T08:55:16.902Z,14.52
2023-11-06T08:58:19.504Z,14.73
2023-11-06T09:01:21.949Z,14.80
2023-11-06T09:04:24.491Z,14.87
2023-11-06T09:07:28.126Z,14.80
2023-11-06T09:10:30.831Z,14.65
2023-11-06T09:13:37.555Z,14.62
2023-11-06T09:16:41.045Z,14.66
2023-11-06T09:19:43.715Z,14.76
2023-11-06T09:22:47.863Z,14.74
2023-11-06T09:25:50.611Z,14.75
2023-11-06T09:28:55.111Z,14.79
2023-11-06T09:31:57.380Z,14.85
2023-11-06T09:35:02.268Z,14.79
2023-11-06T09:38:04.820Z,14.85
2023-11-06T09:41:07.568Z,14.82
2023-11-06T09:44:10.009Z,14.83
2023-11-06T09:47:13.188Z,14.89
2023-11-06T09:50:20.133Z,14.95
2023-11-06T09:53:24.227Z,14.99
2023-11-06T09:56:28.633Z,15.06
2023-11-06T09:59:31.153Z,15.08
2023-11-06T10:02:33.415Z,15.13
2023-11-06T10:05:35.999Z,15.17
2023-11-06T10:08:41.003Z,15.33
2023-11-06T10:11:44.437Z,15.26
2023-11-06T10:14:48.227Z,15.34
2023-11-06T10:17:50.970Z,15.37
2023-11-06T10:20:55.187Z,15.47
2023-11-06T10:24:02.472Z,15.52
2023-11-06T10:27:22.163Z,15.55
2023-11-06T10:30:25.703Z,15.50
2023-11-06T10:33:32.121Z,15.65
2023-11-06T10:36:34.900Z,15.69
2023-11-06T10:39:41.882Z,15.71
2023-11-06T10:42:46.228Z,15.66
2023-11-06T10:45:49.927Z,15.63
2023-11-06T10:48:59.078Z,15.59
2023-11-06T10:52:04.864Z,15.56
2023-11-06T10:55:15.644Z,15.45
2023-11-06T10:58:26.516Z,15.41
2023-11-06T11:01:29.820Z,15.40
2023-11-06T11:04:34.287Z,15.40
2023-11-06T11:07:37.432Z,15.43
2023-11-06T11:10:42.791Z,15.48
2023-11-06T11:13:46.024Z,15.60
2023-11-06T11:16:52.051Z,15.60
2023-11-06T11:20:07.086Z,15.63
2023-11-06T11:23:11.691Z,15.67
2023-11-06T11:26:15.035Z,15.68
2023-11-06T11:29:17.331Z,15.64
2023-11-06T11:32:37.048Z,15.49
2023-11-06T11:35:39.322Z,15.50
2023-11-06T11:38:49.675Z,15.52
2023-11-06T11:42:08.450Z,15.48
2023-11-06T11:45:31.076Z,15.47
2023-11-06T11:48:52.248Z,15.47
2023-11-06T11:51:54.839Z,15.54
2023-11-06T11:54:57.088Z,15.66
2023-11-06T11:58:10.410Z,15.61
2023-11-06T12:01:12.938Z,15.73
2023-11-06T12:04:23.810Z,15.74
2023-11-06T12:07:31.943Z,15.73
2023-11-06T12:10:34.489Z,15.89
2023-11-06T12:13:36.856Z,15.80
2023-11-06T12:16:53.602Z,15.95
2023-11-06T12:20:01.253Z,16.06
2023-11-06T12:23:04.005Z,16.05
2023-11-06T12:26:15.296Z,15.93
2023-11-06T12:29:30.677Z,15.95
2023-11-06T12:32:33.862Z,15.90
2023-11-06T12:35:38.727Z,15.95
2023-11-06T12:38:42.020Z,16.05
2023-11-06T12:41:44.666Z,16.03
2023-11-06T12:44:47.835Z,16.05
2023-11-06T12:47:51.531Z,16.06
2023-11-06T12:51:00.631Z,16.06
2023-11-06T12:54:03.246Z,16.09
2023-11-06T12:57:09.870Z,16.13
2023-11-06T13:00:16.531Z,16.07
2023-11-06T13:03:19.653Z,15.85
2023-11-06T13:06:22.364Z,15.81
2023-11-06T13:09:25.505Z,15.79
2023-11-06T13:12:28.032Z,15.81
2023-11-06T13:15:30.993Z,15.81
2023-11-06T13:18:35.940Z,15.72
2023-11-06T13:21:38.114Z,15.77
2023-11-06T13:24:43.419Z,15.83
2023-11-06T13:27:45.615Z,15.87
2023-11-06T13:30:48.607Z,15.84
2023-11-06T13:33:54.369Z,15.80
2023-11-06T13:36:57.677Z,15.82
2023-11-06T13:40:13.034Z,15.78
2023-11-06T13:43:16.867Z,15.86
2023-11-06T13:46:19.091Z,15.78
2023-11-06T13:49:22.911Z,15.89
2023-11-06T13:52:40.241Z,15.80
2023-11-06T13:55:57.027Z,15.88
2023-11-06T13:59:09.770Z,15.91
2023-11-06T14:02:17.944Z,15.94
2023-11-06T14:05:21.023Z,15.90
2023-11-06T14:08:24.844Z,15.84
2023-11-06T14:11:29.150Z,15.76
2023-11-06T14:14:31.850Z,15.69
2023-11-06T14:17:34.367Z,15.61
2023-11-06T14:20:36.604Z,15.52
2023-11-06T14:23:39.140Z,15.56
2023-11-06T14:26:41.372Z,15.51
2023-11-06T14:29:44.364Z,15.46
2023-11-06T14:32:47.320Z,15.40
2023-11-06T14:35:54.093Z,15.41
2023-11-06T14:38:56.483Z,15.38
2023-11-06T14:41:59.042Z,15.37
2023-11-06T14:45:01.236Z,15.27
2023-11-06T14:48:07.550Z,15.26
2023-11-06T14:51:10.590Z,15.24
2023-11-06T14:54:14.062Z,15.22
2023-11-06T14:57:16.293Z,15.15
2023-11-06T15:00:20.957Z,15.13
2023-11-06T15:03:23.401Z,15.13
2023-11-06T15:06:26.284Z,15.12
2023-11-06T15:09:28.468Z,15.02
2023-11-06T15:12:31.733Z,14.97
2023-11-06T15:15:33.931Z,14.96
2023-11-06T15:18:36.555Z,14.83
2023-11-06T15:21:38.793Z,14.76
2023-11-06T15:24:41.277Z,14.64
2023-11-06T15:27:44.279Z,14.55
2023-11-06T15:30:46.717Z,14.41
2023-11-06T15:33:49.097Z,14.35
2023-11-06T15:36:51.764Z,14.32
2023-11-06T15:39:54.020Z,14.21
2023-11-06T15:42:56.442Z,14.06
2023-11-06T15:46:01.027Z,13.95
2023-11-06T15:49:05.287Z,13.88
2023-11-06T15:52:09.156Z,13.73
2023-11-06T15:55:12.817Z,13.68
2023-11-06T15:58:15.372Z,13.62
2023-11-06T16:01:20.917Z,13.44
2023-11-06T16:04:27.214Z,13.34
2023-11-06T16:07:30.893Z,13.29
2023-11-06T16:10:34.559Z,13.20
2023-11-06T16:13:39.237Z,13.15
2023-11-06T16:16:42.104Z,13.11
2023-11-06T16:19:44.300Z,12.98
2023-11-06T16:22:46.706Z,12.90
2023-11-06T16:25:48.920Z,12.90
2023-11-06T16:28:54.408Z,12.73
2023-11-06T16:32:01.710Z,12.66
2023-11-06T16:35:05.058Z,12.56
2023-11-06T16:38:07.437Z,12.60
2023-11-06T16:41:10.894Z,12.50
2023-11-06T16:44:13.832Z,12.48
2023-11-06T16:47:16.274Z,12.51
2023-11-06T16:50:24.562Z,12.43
